Time;durP1;ratioP1;P1;durP2;ratioP2;P2;SDS_P1;SDS_P2;PMS_P1;PMS_P2;Temp;Humidity;BMP_temperature;BMP_pressure;BME280_temperature;BME280_humidity;BME280_pressure;Samples;Min_cycle;Max_cycle;Signal;HPM_P1;HPM_P2
2023/09/04 00:00:53;;;;;;;;;;;22.90;99.90;;;;;;5078089;28;20317;-69
2023/09/04 00:03:20;;;;;;;;;;;22.90;99.90;;;;;;5096259;28;20017;-69
2023/09/04 00:05:45;;;;;;;;;;;23.00;99.90;;;;;;5078043;28;19958;-69
2023/09/04 00:08:11;;;;;;;;;;;22.90;99.90;;;;;;5096633;28;19932;-68
2023/09/04 00:10:37;;;;;;;;;;;22.90;99.90;;;;;;5096612;28;19916;-69
2023/09/04 00:13:03;;;;;;;;;;;22.80;99.90;;;;;;5096091;28;19915;-68
2023/09/04 00:15:29;;;;;;;;;;;23.00;99.90;;;;;;5095813;28;20282;-70
2023/09/04 00:17:55;;;;;;;;;;;22.90;99.90;;;;;;5096026;28;20363;-69
2023/09/04 00:20:21;;;;;;;;;;;22.90;99.90;;;;;;5095924;28;19915;-68
2023/09/04 00:22:47;;;;;;;;;;;22.80;99.90;;;;;;5095951;28;19908;-69
2023/09/04 00:25:13;;;;;;;;;;;22.80;99.90;;;;;;5096102;28;19908;-69
2023/09/04 00:27:38;;;;;;;;;;;22.80;99.90;;;;;;5096222;28;19908;-69
2023/09/04 00:30:05;;;;;;;;;;;22.80;99.90;;;;;;5095739;28;19963;-69
2023/09/04 00:32:31;;;;;;;;;;;22.80;99.90;;;;;;5095519;28;19908;-68
2023/09/04 00:34:56;;;;;;;;;;;22.80;99.90;;;;;;5096177;28;19915;-69
2023/09/04 00:37:25;;;;;;;;;;;22.80;99.90;;;;;;5095393;28;19931;-68
2023/09/04 00:39:50;;;;;;;;;;;22.90;99.90;;;;;;5096117;28;19921;-69
2023/09/04 00:42:16;;;;;;;;;;;22.90;99.90;;;;;;5095510;28;19916;-69
2023/09/04 00:44:49;;;;;;;;;;;22.90;99.90;;;;;;5095742;28;19913;-68
2023/09/04 00:47:17;;;;;;;;;;;22.80;99.90;;;;;;5095847;28;19908;-68
2023/09/04 00:49:44;;;;;;;;;;;22.80;99.90;;;;;;5095299;28;19916;-69
2023/09/04 00:52:10;;;;;;;;;;;22.80;99.90;;;;;;5095337;28;19912;-69
2023/09/04 00:54:36;;;;;;;;;;;22.80;99.90;;;;;;5077137;28;19908;-68
2023/09/04 00:57:04;;;;;;;;;;;22.80;99.90;;;;;;5077082;28;19912;-69
2023/09/04 00:59:29;;;;;;;;;;;22.80;99.90;;;;;;5077297;28;20002;-69
2023/09/04 01:01:58;;;;;;;;;;;22.80;99.90;;;;;;5076816;28;19955;-69
2023/09/04 01:04:23;;;;;;;;;;;22.80;99.90;;;;;;5095556;28;19908;-69
2023/09/04 01:06:49;;;;;;;;;;;22.70;99.90;;;;;;5095073;28;20378;-69
2023/09/04 01:09:16;;;;;;;;;;;22.80;99.90;;;;;;5094972;28;19915;-69
2023/09/04 01:11:46;;;;;;;;;;;22.70;99.90;;;;;;5094826;28;19969;-68
2023/09/04 01:14:17;;;;;;;;;;;22.60;99.90;;;;;;5094818;28;19958;-68
2023/09/04 01:16:44;;;;;;;;;;;22.70;99.90;;;;;;5094873;28;20375;-68
2023/09/04 01:19:12;;;;;;;;;;;22.60;99.90;;;;;;5095356;28;19987;-68
2023/09/04 01:21:39;;;;;;;;;;;22.60;99.90;;;;;;5095054;28;20356;-68
2023/09/04 01:24:07;;;;;;;;;;;22.60;99.90;;;;;;5094731;28;19955;-69
2023/09/04 01:26:51;;;;;;;;;;;22.60;99.90;;;;;;5094948;28;19947;-68
2023/09/04 01:29:35;;;;;;;;;;;22.70;99.90;;;;;;5095065;28;19908;-69
2023/09/04 01:32:07;;;;;;;;;;;22.60;99.90;;;;;;5094333;28;19935;-68
2023/09/04 01:34:36;;;;;;;;;;;22.60;99.90;;;;;;5094481;28;20003;-68
2023/09/04 01:37:02;;;;;;;;;;;22.60;99.90;;;;;;5094181;28;19920;-69
2023/09/04 01:39:28;;;;;;;;;;;22.70;99.90;;;;;;5094171;28;19912;-68
2023/09/04 01:41:55;;;;;;;;;;;22.70;99.90;;;;;;5094435;28;19908;-68
2023/09/04 01:44:21;;;;;;;;;;;22.70;99.90;;;;;;5094298;28;19970;-68
2023/09/04 01:46:46;;;;;;;;;;;22.70;99.90;;;;;;5094215;28;20253;-69
2023/09/04 01:49:12;;;;;;;;;;;22.70;99.90;;;;;;5094194;28;19963;-68
2023/09/04 01:51:38;;;;;;;;;;;22.70;99.90;;;;;;5094736;28;20014;-69
2023/09/04 01:54:04;;;;;;;;;;;22.70;99.90;;;;;;5094206;28;19954;-69
2023/09/04 01:56:31;;;;;;;;;;;22.60;99.90;;;;;;5094718;28;20006;-69
2023/09/04 01:58:56;;;;;;;;;;;22.60;99.90;;;;;;5094372;28;19998;-69
2023/09/04 02:01:22;;;;;;;;;;;22.60;99.90;;;;;;5093924;28;19999;-69
2023/09/04 02:03:58;;;;;;;;;;;22.60;99.90;;;;;;5094564;28;20269;-68
2023/09/04 02:06:24;;;;;;;;;;;22.50;99.90;;;;;;5094010;28;19908;-69
2023/09/04 02:08:50;;;;;;;;;;;22.50;99.90;;;;;;5094240;28;19915;-68
2023/09/04 02:11:16;;;;;;;;;;;22.40;99.90;;;;;;5094142;28;19916;-68
2023/09/04 02:13:41;;;;;;;;;;;22.40;99.90;;;;;;5094174;28;20390;-68
2023/09/04 02:16:07;;;;;;;;;;;22.40;99.90;;;;;;5093991;28;19958;-68
2023/09/04 02:18:33;;;;;;;;;;;22.40;99.90;;;;;;5093863;28;19908;-68
2023/09/04 02:21:00;;;;;;;;;;;22.30;99.90;;;;;;5094336;28;19909;-69
2023/09/04 02:23:25;;;;;;;;;;;22.30;99.90;;;;;;5094006;28;19951;-68
2023/09/04 02:25:51;;;;;;;;;;;22.30;99.90;;;;;;5093779;28;20402;-69
2023/09/04 02:28:17;;;;;;;;;;;22.20;99.90;;;;;;5075568;28;19908;-68
2023/09/04 02:30:43;;;;;;;;;;;22.20;99.90;;;;;;5093475;28;19916;-68
2023/09/04 02:33:09;;;;;;;;;;;22.30;99.90;;;;;;5093696;28;19915;-68
2023/09/04 02:35:35;;;;;;;;;;;22.30;99.90;;;;;;5094181;28;20444;-67
2023/09/04 02:38:01;;;;;;;;;;;22.40;99.90;;;;;;5093469;28;19920;-68
2023/09/04 02:40:27;;;;;;;;;;;22.40;99.90;;;;;;5093603;28;20356;-68
2023/09/04 02:42:52;;;;;;;;;;;22.30;99.90;;;;;;5093812;28;19963;-68
2023/09/04 02:45:18;;;;;;;;;;;22.30;99.90;;;;;;5075317;28;20368;-69
2023/09/04 02:47:44;;;;;;;;;;;22.30;99.90;;;;;;5093386;28;19908;-67
2023/09/04 02:50:10;;;;;;;;;;;22.30;99.90;;;;;;5096590;28;19916;-68
2023/09/04 02:52:37;;;;;;;;;;;22.30;99.90;;;;;;5098157;28;20256;-68
2023/09/04 02:55:04;;;;;;;;;;;22.30;99.90;;;;;;5079440;28;19912;-68
2023/09/04 02:57:31;;;;;;;;;;;22.20;99.90;;;;;;5097555;28;19908;-68
2023/09/04 02:59:57;;;;;;;;;;;22.20;99.90;;;;;;5079429;28;19912;-68
2023/09/04 03:02:23;;;;;;;;;;;22.20;99.90;;;;;;5097398;28;20382;-68
2023/09/04 03:04:55;;;;;;;;;;;22.20;99.90;;;;;;5097911;28;20003;-69
2023/09/04 03:07:21;;;;;;;;;;;22.30;99.90;;;;;;5097674;28;19908;-68
2023/09/04 03:09:47;;;;;;;;;;;22.20;99.90;;;;;;5097523;28;19919;-68
2023/09/04 03:12:13;;;;;;;;;;;22.20;99.90;;;;;;5097274;28;19923;-68
2023/09/04 03:14:39;;;;;;;;;;;22.30;99.90;;;;;;5078969;28;19944;-69
2023/09/04 03:17:05;;;;;;;;;;;22.30;99.90;;;;;;5096919;28;19909;-68
2023/09/04 03:19:31;;;;;;;;;;;22.30;99.90;;;;;;5097138;28;19915;-68
2023/09/04 03:21:57;;;;;;;;;;;22.20;99.90;;;;;;5097430;28;19962;-68
2023/09/04 03:24:23;;;;;;;;;;;22.20;99.90;;;;;;5097252;28;20314;-68
2023/09/04 03:26:50;;;;;;;;;;;22.20;99.90;;;;;;5096964;28;19912;-68
2023/09/04 03:29:15;;;;;;;;;;;22.20;99.90;;;;;;5097391;28;20014;-68
2023/09/04 03:31:41;;;;;;;;;;;22.20;99.90;;;;;;5096815;28;20384;-68
2023/09/04 03:34:07;;;;;;;;;;;22.30;99.90;;;;;;5096856;28;19915;-68
2023/09/04 03:36:33;;;;;;;;;;;22.30;99.90;;;;;;5096794;28;20342;-68
2023/09/04 03:38:59;;;;;;;;;;;22.30;99.90;;;;;;5097352;28;19915;-68
2023/09/04 03:41:26;;;;;;;;;;;22.20;99.90;;;;;;5096711;28;19959;-68
2023/09/04 03:43:52;;;;;;;;;;;22.20;99.90;;;;;;5096566;28;19927;-68
2023/09/04 03:46:17;;;;;;;;;;;22.20;99.90;;;;;;5096482;28;20012;-68
2023/09/04 03:48:43;;;;;;;;;;;22.20;99.90;;;;;;5097153;28;19914;-68
2023/09/04 03:51:09;;;;;;;;;;;22.10;99.90;;;;;;5096432;28;19985;-68
2023/09/04 03:53:35;;;;;;;;;;;22.20;99.90;;;;;;5096397;28;19908;-68
2023/09/04 03:56:02;;;;;;;;;;;22.10;99.90;;;;;;5096498;28;20276;-68
2023/09/04 03:58:28;;;;;;;;;;;22.10;99.90;;;;;;5096635;28;19909;-68
2023/09/04 04:00:59;;;;;;;;;;;22.00;99.90;;;;;;5095649;28;19908;-68
2023/09/04 04:03:25;;;;;;;;;;;22.00;99.90;;;;;;5096297;28;19908;-69
2023/09/04 04:05:51;;;;;;;;;;;22.00;99.90;;;;;;5096294;28;19908;-68
2023/09/04 04:08:16;;;;;;;;;;;22.00;99.90;;;;;;5096718;28;19931;-68
2023/09/04 04:10:44;;;;;;;;;;;22.10;99.90;;;;;;5096083;28;19976;-68
2023/09/04 04:13:10;;;;;;;;;;;22.10;99.90;;;;;;5096678;28;19999;-68
2023/09/04 04:15:38;;;;;;;;;;;22.00;99.90;;;;;;5096208;28;19979;-68
2023/09/04 04:18:04;;;;;;;;;;;21.90;99.90;;;;;;5096035;28;20356;-68
2023/09/04 04:20:30;;;;;;;;;;;21.90;99.90;;;;;;5096027;28;19908;-68
2023/09/04 04:22:55;;;;;;;;;;;21.90;99.90;;;;;;5077782;28;19908;-68
2023/09/04 04:25:21;;;;;;;;;;;21.90;99.90;;;;;;5096425;28;20025;-68
2023/09/04 04:27:47;;;;;;;;;;;21.80;99.90;;;;;;5096067;28;19908;-68
2023/09/04 04:30:13;;;;;;;;;;;21.70;99.90;;;;;;5095684;28;19923;-68
2023/09/04 04:32:39;;;;;;;;;;;21.70;99.90;;;;;;5095561;28;19915;-67
2023/09/04 04:35:05;;;;;;;;;;;21.70;99.90;;;;;;5095657;28;19915;-69
2023/09/04 04:37:31;;;;;;;;;;;21.70;99.90;;;;;;5095315;28;20361;-69
2023/09/04 04:39:57;;;;;;;;;;;21.70;99.90;;;;;;5095915;28;19912;-70
2023/09/04 04:42:25;;;;;;;;;;;21.80;99.90;;;;;;5095742;28;20380;-68
2023/09/04 04:44:52;;;;;;;;;;;21.90;99.90;;;;;;5077395;28;19908;-69
2023/09/04 04:47:17;;;;;;;;;;;22.10;99.90;;;;;;5095783;28;19942;-68
2023/09/04 04:49:43;;;;;;;;;;;22.20;99.90;;;;;;5095598;28;20263;-68
2023/09/04 04:52:09;;;;;;;;;;;22.30;99.90;;;;;;5077276;28;19915;-67
2023/09/04 04:54:35;;;;;;;;;;;22.30;99.90;;;;;;5095229;28;19908;-68
2023/09/04 04:57:01;;;;;;;;;;;22.40;99.90;;;;;;5095498;28;19908;-68
2023/09/04 04:59:27;;;;;;;;;;;22.50;99.90;;;;;;5094760;28;19953;-68
2023/09/04 05:01:54;;;;;;;;;;;22.50;99.90;;;;;;5095258;28;20398;-68
2023/09/04 05:04:20;;;;;;;;;;;22.50;99.90;;;;;;5095619;28;19908;-69
2023/09/04 05:06:46;;;;;;;;;;;22.60;99.90;;;;;;5095247;28;19916;-69
2023/09/04 05:09:12;;;;;;;;;;;22.70;99.90;;;;;;5095289;28;20264;-68
2023/09/04 05:11:37;;;;;;;;;;;22.70;99.90;;;;;;5094695;28;19916;-69
2023/09/04 05:14:03;;;;;;;;;;;22.80;99.90;;;;;;5094491;28;19947;-68
2023/09/04 05:16:29;;;;;;;;;;;22.90;99.90;;;;;;5094448;28;19916;-69
2023/09/04 05:18:55;;;;;;;;;;;23.00;99.90;;;;;;5076168;28;19908;-68
2023/09/04 05:21:21;;;;;;;;;;;23.10;99.90;;;;;;5094788;28;19908;-68
2023/09/04 05:23:47;;;;;;;;;;;23.30;99.90;;;;;;5093951;28;19908;-69
2023/09/04 05:26:13;;;;;;;;;;;24.20;99.90;;;;;;5094610;28;19912;-69
2023/09/04 05:28:39;;;;;;;;;;;25.10;99.90;;;;;;5094326;28;19962;-69
2023/09/04 05:31:05;;;;;;;;;;;26.10;99.90;;;;;;5094250;28;20260;-69
2023/09/04 05:33:31;;;;;;;;;;;27.20;99.90;;;;;;5094040;28;19908;-69
2023/09/04 05:35:56;;;;;;;;;;;27.90;99.90;;;;;;5094458;28;20011;-70
2023/09/04 05:38:23;;;;;;;;;;;28.40;99.90;;;;;;5093483;28;19921;-70
2023/09/04 05:40:52;;;;;;;;;;;28.90;99.90;;;;;;5094000;28;19909;-69
2023/09/04 05:43:18;;;;;;;;;;;29.10;99.90;;;;;;5075842;28;19912;-70
2023/09/04 05:45:44;;;;;;;;;;;29.70;99.90;;;;;;5094045;28;19908;-70
2023/09/04 05:48:09;;;;;;;;;;;29.70;99.90;;;;;;5093892;28;19914;-70
2023/09/04 05:50:35;;;;;;;;;;;29.80;99.90;;;;;;5093797;28;20014;-69
2023/09/04 05:53:01;;;;;;;;;;;29.80;99.90;;;;;;5075574;28;19919;-70
2023/09/04 05:55:27;;;;;;;;;;;30.40;99.90;;;;;;5094251;28;19908;-70
2023/09/04 05:57:53;;;;;;;;;;;30.80;99.90;;;;;;5094157;28;19912;-71
2023/09/04 06:00:21;;;;;;;;;;;30.40;99.90;;;;;;5093697;28;19930;-69
2023/09/04 06:02:47;;;;;;;;;;;30.10;99.90;;;;;;5093333;28;19971;-69
2023/09/04 06:05:12;;;;;;;;;;;30.00;99.90;;;;;;5093960;28;20402;-69
2023/09/04 06:07:38;;;;;;;;;;;30.00;99.90;;;;;;5093642;28;20340;-69
2023/09/04 06:10:05;;;;;;;;;;;30.30;99.90;;;;;;5093662;28;20035;-69
2023/09/04 06:12:30;;;;;;;;;;;31.10;99.90;;;;;;5092867;28;19908;-70
2023/09/04 06:14:56;;;;;;;;;;;31.10;99.90;;;;;;5093009;28;19915;-70
2023/09/04 06:17:22;;;;;;;;;;;30.20;99.90;;;;;;5092646;28;19990;-69
2023/09/04 06:19:48;;;;;;;;;;;30.50;99.90;;;;;;5092916;28;20385;-69
2023/09/04 06:22:13;;;;;;;;;;;31.10;99.90;;;;;;5093039;28;19920;-70
2023/09/04 06:24:39;;;;;;;;;;;31.40;99.90;;;;;;5092975;28;20391;-69
2023/09/04 06:27:05;;;;;;;;;;;31.50;99.90;;;;;;5093014;28;19908;-71
2023/09/04 06:29:31;;;;;;;;;;;31.00;99.90;;;;;;5093348;28;20249;-69
2023/09/04 06:31:57;;;;;;;;;;;30.70;99.90;;;;;;5074884;28;19912;-69
2023/09/04 06:34:22;;;;;;;;;;;31.10;99.90;;;;;;5093303;28;19988;-70
2023/09/04 06:36:48;;;;;;;;;;;31.60;99.90;;;;;;5093286;28;19916;-70
2023/09/04 06:39:14;;;;;;;;;;;32.30;99.90;;;;;;5093110;28;19912;-70
2023/09/04 06:41:40;;;;;;;;;;;32.10;99.90;;;;;;5093604;28;19909;-69
2023/09/04 06:44:06;;;;;;;;;;;32.30;99.90;;;;;;5092949;28;20379;-70
2023/09/04 06:46:32;;;;;;;;;;;31.40;99.90;;;;;;5093292;28;20022;-72
2023/09/04 06:48:58;;;;;;;;;;;32.20;99.90;;;;;;5093232;28;19908;-71
2023/09/04 06:51:24;;;;;;;;;;;31.10;99.90;;;;;;5093260;28;19920;-69
2023/09/04 06:53:49;;;;;;;;;;;31.00;99.90;;;;;;5093028;28;19914;-71
2023/09/04 06:56:15;;;;;;;;;;;31.90;99.90;;;;;;5093307;28;20229;-70
2023/09/04 06:58:41;;;;;;;;;;;32.20;99.90;;;;;;5093066;28;19915;-71
2023/09/04 07:01:07;;;;;;;;;;;33.10;99.90;;;;;;5074276;28;19949;-71
2023/09/04 07:03:33;;;;;;;;;;;33.60;99.60;;;;;;5093131;28;20264;-70
2023/09/04 07:05:59;;;;;;;;;;;33.50;99.60;;;;;;5092565;28;19908;-71
2023/09/04 07:08:25;;;;;;;;;;;34.20;98.90;;;;;;5092612;28;20132;-70
2023/09/04 07:10:51;;;;;;;;;;;35.00;97.90;;;;;;5092672;28;19916;-72
2023/09/04 07:13:18;;;;;;;;;;;35.00;96.90;;;;;;5092826;28;19908;-70
2023/09/04 07:15:44;;;;;;;;;;;35.60;96.20;;;;;;5074433;28;19912;-71
2023/09/04 07:18:10;;;;;;;;;;;34.50;95.90;;;;;;5092391;28;19908;-70
2023/09/04 07:20:37;;;;;;;;;;;35.00;95.90;;;;;;5092849;28;19909;-70
2023/09/04 07:23:05;;;;;;;;;;;35.30;95.30;;;;;;5092690;28;19953;-70
2023/09/04 07:25:32;;;;;;;;;;;35.60;94.50;;;;;;5093476;28;19908;-73
2023/09/04 07:27:58;;;;;;;;;;;35.80;94.50;;;;;;5092850;28;19914;-70
2023/09/04 07:30:24;;;;;;;;;;;35.20;93.90;;;;;;5092367;28;19916;-71
2023/09/04 07:32:50;;;;;;;;;;;34.60;93.90;;;;;;5092547;28;19908;-70
2023/09/04 07:35:16;;;;;;;;;;;33.80;94.60;;;;;;5093415;28;20007;-70
2023/09/04 07:37:41;;;;;;;;;;;32.90;95.00;;;;;;5074161;28;19925;-72
2023/09/04 07:40:08;;;;;;;;;;;32.30;95.60;;;;;;5076165;28;19909;-69
2023/09/04 07:42:34;;;;;;;;;;;32.00;95.80;;;;;;5074500;28;19959;-70
2023/09/04 07:44:59;;;;;;;;;;;32.30;96.20;;;;;;5075709;28;19912;-70
2023/09/04 07:47:25;;;;;;;;;;;32.70;95.80;;;;;;5075462;28;19909;-70
2023/09/04 07:49:53;;;;;;;;;;;32.20;95.50;;;;;;5075508;28;19913;-70
2023/09/04 07:52:20;;;;;;;;;;;32.40;95.90;;;;;;5075467;28;19912;-71
2023/09/04 07:54:47;;;;;;;;;;;32.30;95.80;;;;;;5075874;28;20345;-71
2023/09/04 07:57:13;;;;;;;;;;;31.70;96.30;;;;;;5073916;28;19913;-71
2023/09/04 07:59:39;;;;;;;;;;;31.50;96.10;;;;;;5075383;28;20335;-70
2023/09/04 08:02:05;;;;;;;;;;;31.20;96.50;;;;;;5075363;28;19909;-71
2023/09/04 08:04:31;;;;;;;;;;;31.40;96.60;;;;;;5073879;28;19999;-72
2023/09/04 08:06:57;;;;;;;;;;;31.80;96.20;;;;;;5075041;28;19959;-70
2023/09/04 08:09:23;;;;;;;;;;;31.70;96.00;;;;;;5075129;28;20020;-71
2023/09/04 08:11:51;;;;;;;;;;;31.50;96.10;;;;;;5075215;28;19913;-70
2023/09/04 08:14:17;;;;;;;;;;;31.40;96.00;;;;;;5075303;28;20230;-70
2023/09/04 08:16:43;;;;;;;;;;;31.40;96.10;;;;;;5074749;28;20096;-72
2023/09/04 08:19:09;;;;;;;;;;;31.50;96.40;;;;;;5074783;28;19908;-71
2023/09/04 08:21:35;;;;;;;;;;;31.60;95.90;;;;;;5075269;28;20356;-71
2023/09/04 08:24:00;;;;;;;;;;;31.80;96.10;;;;;;5073477;28;19908;-72
2023/09/04 08:26:28;;;;;;;;;;;31.90;95.80;;;;;;5075267;28;20300;-70
2023/09/04 08:28:54;;;;;;;;;;;32.40;95.80;;;;;;5074922;28;19913;-71
2023/09/04 08:31:20;;;;;;;;;;;32.60;95.90;;;;;;5075072;28;20011;-72
2023/09/04 08:33:46;;;;;;;;;;;32.50;95.20;;;;;;5073394;28;19908;-69
2023/09/04 08:36:13;;;;;;;;;;;31.50;95.50;;;;;;5074169;28;19909;-70
2023/09/04 08:38:38;;;;;;;;;;;31.10;95.90;;;;;;5076929;28;20327;-71
2023/09/04 08:41:05;;;;;;;;;;;30.90;96.40;;;;;;5095326;28;20336;-70
2023/09/04 08:43:31;;;;;;;;;;;31.20;96.10;;;;;;5095180;28;20407;-71
2023/09/04 08:45:59;;;;;;;;;;;31.40;95.60;;;;;;5095139;28;20341;-70
2023/09/04 08:48:26;;;;;;;;;;;31.30;95.60;;;;;;5094791;28;19909;-71
2023/09/04 08:50:52;;;;;;;;;;;31.10;95.50;;;;;;5095350;28;20356;-70
2023/09/04 08:53:18;;;;;;;;;;;31.20;95.80;;;;;;5094955;28;20425;-70
2023/09/04 08:55:44;;;;;;;;;;;31.20;95.60;;;;;;5076447;28;20436;-70
2023/09/04 08:58:10;;;;;;;;;;;30.80;96.10;;;;;;5094556;28;19908;-70
2023/09/04 09:00:36;;;;;;;;;;;31.10;96.00;;;;;;5094621;28;19908;-70
2023/09/04 09:03:02;;;;;;;;;;;31.10;95.60;;;;;;5094364;28;19908;-70
2023/09/04 09:05:28;;;;;;;;;;;31.10;95.90;;;;;;5075951;28;19908;-70
2023/09/04 09:07:55;;;;;;;;;;;31.40;95.70;;;;;;5094203;28;20054;-71
2023/09/04 09:10:22;;;;;;;;;;;31.20;95.50;;;;;;5094387;28;20295;-70
2023/09/04 09:12:48;;;;;;;;;;;31.50;95.60;;;;;;5075916;28;19909;-70
2023/09/04 09:15:15;;;;;;;;;;;31.60;95.20;;;;;;5094666;28;20348;-73
2023/09/04 09:17:55;;;;;;;;;;;31.30;95.00;;;;;;5075744;28;19915;-69
2023/09/04 09:20:47;;;;;;;;;;;30.80;95.70;;;;;;5094447;28;19908;-70
2023/09/04 09:23:14;;;;;;;;;;;30.90;96.00;;;;;;5090884;28;19909;-70
2023/09/04 09:25:40;;;;;;;;;;;31.60;95.70;;;;;;5075622;28;19947;-70
2023/09/04 09:28:07;;;;;;;;;;;31.50;94.70;;;;;;5094121;28;20043;-70
2023/09/04 09:30:39;;;;;;;;;;;31.70;94.90;;;;;;5094141;28;19923;-70
2023/09/04 09:33:16;;;;;;;;;;;31.80;95.20;;;;;;5075547;28;20374;-70
2023/09/04 09:35:42;;;;;;;;;;;31.60;95.20;;;;;;5094026;28;19977;-72
2023/09/04 09:38:09;;;;;;;;;;;31.70;95.20;;;;;;5093970;28;20380;-71
2023/09/04 09:40:34;;;;;;;;;;;31.90;95.20;;;;;;5093971;28;20002;-71
2023/09/04 09:43:00;;;;;;;;;;;31.80;95.00;;;;;;5093856;28;19943;-71
2023/09/04 09:45:35;;;;;;;;;;;32.30;95.10;;;;;;5094101;28;20395;-69
2023/09/04 09:48:07;;;;;;;;;;;32.10;94.40;;;;;;5093580;28;19912;-70
2023/09/04 09:50:37;;;;;;;;;;;31.60;94.60;;;;;;5093544;28;20031;-70
2023/09/04 09:53:05;;;;;;;;;;;31.50;94.80;;;;;;5075550;28;19908;-71
2023/09/04 09:55:31;;;;;;;;;;;31.20;95.20;;;;;;5093559;28;19919;-71
2023/09/04 09:57:58;;;;;;;;;;;31.30;95.30;;;;;;5075389;28;19919;-70
2023/09/04 10:00:27;;;;;;;;;;;31.10;95.50;;;;;;5093057;28;19912;-69
2023/09/04 10:02:53;;;;;;;;;;;31.20;95.40;;;;;;5093349;28;20379;-70
2023/09/04 10:05:22;;;;;;;;;;;31.00;95.20;;;;;;5093703;28;19908;-69
2023/09/04 10:07:49;;;;;;;;;;;30.90;95.00;;;;;;5075278;28;19931;-69
2023/09/04 10:10:15;;;;;;;;;;;31.00;95.20;;;;;;5093382;28;20022;-72
2023/09/04 10:12:49;;;;;;;;;;;31.00;95.10;;;;;;5093236;28;19991;-70
2023/09/04 10:15:16;;;;;;;;;;;31.10;94.70;;;;;;5093378;28;20240;-69
2023/09/04 10:17:42;;;;;;;;;;;31.30;94.70;;;;;;5093302;28;19991;-69
2023/09/04 10:20:08;;;;;;;;;;;31.60;95.00;;;;;;5093283;28;19954;-70
2023/09/04 10:22:36;;;;;;;;;;;31.30;94.40;;;;;;5093298;28;20340;-72
2023/09/04 10:25:14;;;;;;;;;;;31.30;94.20;;;;;;5093411;28;20356;-71
2023/09/04 10:27:43;;;;;;;;;;;31.20;94.30;;;;;;5093760;28;19961;-69
2023/09/04 10:30:13;;;;;;;;;;;31.00;94.50;;;;;;5093135;28;19923;-70
2023/09/04 10:32:39;;;;;;;;;;;31.00;94.70;;;;;;5093021;28;19912;-68
2023/09/04 10:35:06;;;;;;;;;;;31.10;94.50;;;;;;5093883;28;19908;-71
2023/09/04 10:37:32;;;;;;;;;;;30.90;94.60;;;;;;5092716;28;19928;-69
2023/09/04 10:39:58;;;;;;;;;;;30.90;94.30;;;;;;5093467;28;19908;-69
2023/09/04 10:42:27;;;;;;;;;;;31.20;94.40;;;;;;5092864;28;20006;-70
2023/09/04 10:44:53;;;;;;;;;;;31.40;93.50;;;;;;5092762;28;19995;-70
2023/09/04 10:47:20;;;;;;;;;;;31.30;93.30;;;;;;5092535;28;19998;-70
2023/09/04 10:49:46;;;;;;;;;;;31.50;93.50;;;;;;5092520;28;20002;-70
2023/09/04 10:52:12;;;;;;;;;;;31.70;93.30;;;;;;5092822;28;20352;-70
2023/09/04 10:54:38;;;;;;;;;;;31.70;92.50;;;;;;5092841;28;19908;-70
2023/09/04 10:57:11;;;;;;;;;;;31.80;91.90;;;;;;5092878;28;19916;-70
2023/09/04 10:59:54;;;;;;;;;;;31.80;92.00;;;;;;5093443;28;19915;-70
2023/09/04 11:02:27;;;;;;;;;;;31.70;91.70;;;;;;5092575;28;19908;-69
2023/09/04 11:04:53;;;;;;;;;;;31.50;92.10;;;;;;5092740;28;19912;-70
2023/09/04 11:07:19;;;;;;;;;;;31.30;92.10;;;;;;5092819;28;19908;-71
2023/09/04 11:09:45;;;;;;;;;;;31.30;92.50;;;;;;5074438;28;19908;-69
2023/09/04 11:12:20;;;;;;;;;;;31.30;92.80;;;;;;5095474;28;20265;-69
2023/09/04 11:14:47;;;;;;;;;;;31.10;92.80;;;;;;5097126;28;20006;-69
2023/09/04 11:17:15;;;;;;;;;;;31.30;93.10;;;;;;5096683;28;19915;-69
2023/09/04 11:19:41;;;;;;;;;;;31.40;93.30;;;;;;5096686;28;20000;-69
2023/09/04 11:22:20;;;;;;;;;;;31.30;93.30;;;;;;5096610;28;19916;-71
2023/09/04 11:24:46;;;;;;;;;;;31.40;93.70;;;;;;5096699;28;20116;-69
2023/09/04 11:27:12;;;;;;;;;;;31.00;93.90;;;;;;5096724;28;20076;-69
2023/09/04 11:29:37;;;;;;;;;;;31.10;94.10;;;;;;5096524;28;19939;-69
2023/09/04 11:32:05;;;;;;;;;;;31.00;94.30;;;;;;5096158;28;19973;-69
2023/09/04 11:34:31;;;;;;;;;;;31.00;94.30;;;;;;5096269;28;19910;-70
2023/09/04 11:36:57;;;;;;;;;;;31.20;94.50;;;;;;5096029;28;19920;-69
2023/09/04 11:39:23;;;;;;;;;;;31.30;94.40;;;;;;5096648;28;20352;-70
2023/09/04 11:41:50;;;;;;;;;;;31.70;94.30;;;;;;5096219;28;19915;-69
2023/09/04 11:44:15;;;;;;;;;;;31.80;93.50;;;;;;5096156;28;19935;-69
2023/09/04 11:46:42;;;;;;;;;;;31.70;93.50;;;;;;5095926;28;20368;-70
2023/09/04 11:49:08;;;;;;;;;;;31.70;93.60;;;;;;5096153;28;19908;-69
2023/09/04 11:51:35;;;;;;;;;;;32.00;93.30;;;;;;5096478;28;20439;-69
2023/09/04 11:54:07;;;;;;;;;;;31.70;93.20;;;;;;5096373;28;19908;-69
2023/09/04 11:56:33;;;;;;;;;;;31.80;93.40;;;;;;5096133;28;19937;-69
2023/09/04 11:59:02;;;;;;;;;;;32.30;93.50;;;;;;5096190;28;19942;-69
2023/09/04 12:01:28;;;;;;;;;;;32.60;93.10;;;;;;5095832;28;20324;-69
2023/09/04 12:03:54;;;;;;;;;;;32.30;93.00;;;;;;5096008;28;19920;-69
2023/09/04 12:06:27;;;;;;;;;;;32.40;93.40;;;;;;5096289;28;19908;-70
2023/09/04 12:08:53;;;;;;;;;;;32.70;93.50;;;;;;5095857;28;19908;-71
2023/09/04 12:11:21;;;;;;;;;;;32.80;93.10;;;;;;5096200;28;19923;-69
2023/09/04 12:13:47;;;;;;;;;;;33.10;93.10;;;;;;5095427;28;19908;-69
2023/09/04 12:16:15;;;;;;;;;;;32.90;93.20;;;;;;5077547;28;19908;-69
2023/09/04 12:18:41;;;;;;;;;;;32.80;93.60;;;;;;5095646;28;19934;-69
2023/09/04 12:21:10;;;;;;;;;;;32.50;93.90;;;;;;5096202;28;19995;-69
2023/09/04 12:23:43;;;;;;;;;;;32.30;94.00;;;;;;5077252;28;19915;-69
2023/09/04 12:26:09;;;;;;;;;;;32.00;94.30;;;;;;5096369;28;19909;-69
2023/09/04 12:28:36;;;;;;;;;;;32.10;94.20;;;;;;5095711;28;19908;-69
2023/09/04 12:31:02;;;;;;;;;;;32.20;94.10;;;;;;5096183;28;19923;-69
2023/09/04 12:33:28;;;;;;;;;;;32.50;94.10;;;;;;5077367;28;19908;-71
2023/09/04 12:35:57;;;;;;;;;;;32.70;94.30;;;;;;5096204;28;19914;-70
2023/09/04 12:38:23;;;;;;;;;;;32.70;94.90;;;;;;5095415;28;19988;-70
2023/09/04 12:40:48;;;;;;;;;;;32.70;94.80;;;;;;5096086;28;19916;-70
2023/09/04 12:43:14;;;;;;;;;;;32.80;95.10;;;;;;5095395;28;20030;-69
2023/09/04 12:45:40;;;;;;;;;;;32.80;95.00;;;;;;5095461;28;20419;-69
2023/09/04 12:48:16;;;;;;;;;;;32.30;95.50;;;;;;5095334;28;19968;-69
2023/09/04 12:50:42;;;;;;;;;;;32.40;95.80;;;;;;5095216;28;20059;-70
2023/09/04 12:53:08;;;;;;;;;;;32.00;96.10;;;;;;5096044;28;20435;-69
2023/09/04 12:55:34;;;;;;;;;;;32.10;96.20;;;;;;5095557;28;20384;-70
2023/09/04 12:58:00;;;;;;;;;;;32.20;96.10;;;;;;5095233;28;19908;-69
2023/09/04 13:00:29;;;;;;;;;;;31.80;96.50;;;;;;5095054;28;19915;-69
2023/09/04 13:02:55;;;;;;;;;;;31.60;96.90;;;;;;5095038;28;20002;-68
2023/09/04 13:05:21;;;;;;;;;;;31.90;97.10;;;;;;5095043;28;19974;-69
2023/09/04 13:07:47;;;;;;;;;;;31.90;96.80;;;;;;5094920;28;19915;-69
2023/09/04 13:10:12;;;;;;;;;;;32.00;97.00;;;;;;5094808;28;19912;-69
2023/09/04 13:12:38;;;;;;;;;;;31.90;96.90;;;;;;5094806;28;19912;-69
2023/09/04 13:15:04;;;;;;;;;;;31.40;97.40;;;;;;5095329;28;20379;-69
2023/09/04 13:17:30;;;;;;;;;;;31.10;97.80;;;;;;5094522;28;19912;-69
2023/09/04 13:19:56;;;;;;;;;;;30.90;98.10;;;;;;5095203;28;19973;-69
2023/09/04 13:22:22;;;;;;;;;;;30.90;98.20;;;;;;5094721;28;19908;-69
2023/09/04 13:24:48;;;;;;;;;;;31.20;98.30;;;;;;5094765;28;19915;-70
2023/09/04 13:27:13;;;;;;;;;;;31.40;98.20;;;;;;5094575;28;19915;-68
2023/09/04 13:29:39;;;;;;;;;;;31.60;98.40;;;;;;5094171;28;20416;-70
2023/09/04 13:32:05;;;;;;;;;;;31.80;98.40;;;;;;5094385;28;19923;-69
2023/09/04 13:34:31;;;;;;;;;;;31.80;98.40;;;;;;5075137;28;19908;-69
2023/09/04 13:36:57;;;;;;;;;;;31.00;99.20;;;;;;5094400;28;20280;-69
2023/09/04 13:39:23;;;;;;;;;;;30.70;99.70;;;;;;5094366;28;19916;-69
2023/09/04 13:41:48;;;;;;;;;;;31.10;99.60;;;;;;5094138;28;20425;-70
2023/09/04 13:44:14;;;;;;;;;;;30.90;99.30;;;;;;5094017;28;20364;-69
2023/09/04 13:46:40;;;;;;;;;;;30.70;99.40;;;;;;5094316;28;20010;-69
2023/09/04 13:49:06;;;;;;;;;;;30.60;99.50;;;;;;5093956;28;19908;-69
2023/09/04 13:51:31;;;;;;;;;;;30.90;99.40;;;;;;5093831;28;19969;-69
2023/09/04 13:53:57;;;;;;;;;;;31.40;99.10;;;;;;5093842;28;20338;-69
2023/09/04 13:56:23;;;;;;;;;;;31.60;98.60;;;;;;5094222;28;19961;-70
2023/09/04 13:58:51;;;;;;;;;;;31.70;98.20;;;;;;5093729;28;20260;-69
2023/09/04 14:01:16;;;;;;;;;;;31.40;98.20;;;;;;5093760;28;19908;-69
2023/09/04 14:03:45;;;;;;;;;;;31.20;98.10;;;;;;5093560;28;19915;-69
2023/09/04 14:06:11;;;;;;;;;;;30.90;98.30;;;;;;5093670;28;19915;-69
2023/09/04 14:08:37;;;;;;;;;;;31.20;98.40;;;;;;5093732;28;19908;-69
2023/09/04 14:11:03;;;;;;;;;;;31.40;98.30;;;;;;5094190;28;20011;-69
2023/09/04 14:13:29;;;;;;;;;;;31.30;98.20;;;;;;5093970;28;20368;-70